Time,TemperatureF,DewpointF,PressureIn,WindDirection,WindDirectionDegrees,WindSpeedMPH,WindSpeedGustMPH,Humidity,HourlyPrecipIn,Conditions,Clouds,dailyrainin,SoftwareType,DateUTC
2013-01-10 00:03:00,-12.3,-21.9,29.52,NNE,24,0.0,0.0,61,0.00,,,0.00,Weather View 32 v70,2013-01-10 09:03:00,
2013-01-10 00:08:00,-11.6,-20.6,29.53,NNE,24,0.0,0.0,63,0.00,,,0.00,Weather View 32 v70,2013-01-10 09:08:00,
2013-01-10 00:13:00,-11.4,-20.8,29.52,NNE,24,0.0,0.0,62,0.00,,,0.00,Weather View 32 v70,2013-01-10 09:13:00,
2013-01-10 00:18:00,-11.3,-20.7,29.52,NNE,24,0.0,0.0,62,0.00,,,0.00,Weather View 32 v70,2013-01-10 09:18:00,
2013-01-10 00:23:00,-11.3,-21.0,29.52,NNE,24,0.0,0.0,61,0.00,,,0.00,Weather View 32 v70,2013-01-10 09:23:00,
2013-01-10 00:28:00,-11.6,-21.3,29.53,NNE,25,0.0,0.0,61,0.00,,,0.00,Weather View 32 v70,2013-01-10 09:28:00,
2013-01-10 00:33:00,-11.7,-21.4,29.52,NNE,24,0.0,0.0,61,0.00,,,0.00,Weather View 32 v70,2013-01-10 09:33:00,
2013-01-10 00:38:00,-11.8,-21.5,29.52,NNE,25,0.0,0.0,61,0.00,,,0.00,Weather View 32 v70,2013-01-10 09:38:00,
2013-01-10 00:43:00,-11.7,-21.4,29.52,NNE,24,0.0,0.0,61,0.00,,,0.00,Weather View 32 v70,2013-01-10 09:43:00,
2013-01-10 00:48:00,-11.6,-21.3,29.52,NNE,24,0.0,0.0,61,0.00,,,0.00,Weather View 32 v70,2013-01-10 09:48:00,
2013-01-10 00:53:00,-11.5,-20.9,29.52,NNE,24,0.0,0.0,62,0.00,,,0.00,Weather View 32 v70,2013-01-10 09:53:00,
2013-01-10 00:58:00,-11.0,-20.1,29.51,NNE,24,0.0,0.0,63,0.00,,,0.00,Weather View 32 v70,2013-01-10 09:58:00,
2013-01-10 01:03:00,-10.5,-19.6,29.51,NNE,24,0.0,0.0,63,0.00,,,0.00,Weather View 32 v70,2013-01-10 10:03:00,
2013-01-10 01:08:00,-10.2,-19.3,29.51,NNE,24,0.0,0.0,63,0.00,,,0.00,Weather View 32 v70,2013-01-10 10:08:00,
2013-01-10 01:13:00,-10.0,-19.1,29.51,NNE,24,0.0,0.0,63,0.00,,,0.00,Weather View 32 v70,2013-01-10 10:13:00,
2013-01-10 01:18:00,-9.6,-18.4,29.51,NNE,24,0.0,0.0,64,0.00,,,0.00,Weather View 32 v70,2013-01-10 10:18:00,
2013-01-10 01:23:00,-9.2,-18.1,29.51,NNE,24,0.0,0.0,64,0.00,,,0.00,Weather View 32 v70,2013-01-10 10:23:00,
2013-01-10 01:28:00,-8.9,-17.8,29.51,NNE,24,0.0,0.0,64,0.00,,,0.00,Weather View 32 v70,2013-01-10 10:28:00,
2013-01-10 01:33:00,-8.6,-17.5,29.51,NNE,24,0.0,0.0,64,0.00,,,0.00,Weather View 32 v70,2013-01-10 10:33:00,
2013-01-10 01:38:00,-8.3,-17.2,29.51,NNE,25,0.0,0.0,64,0.00,,,0.00,Weather View 32 v70,2013-01-10 10:38:00,
2013-01-10 01:43:00,-8.0,-16.9,29.51,NNE,24,0.0,0.0,64,0.00,,,0.00,Weather View 32 v70,2013-01-10 10:43:00,
2013-01-10 01:48:00,-7.6,-16.5,29.50,NNE,25,0.0,0.0,64,0.00,,,0.00,Weather View 32 v70,2013-01-10 10:48:00,
2013-01-10 01:53:00,-7.5,-16.1,29.51,NNE,24,0.0,0.0,65,0.00,,,0.00,Weather View 32 v70,2013-01-10 10:53:00,
2013-01-10 01:58:00,-7.3,-15.9,29.50,NNE,24,0.0,0.0,65,0.00,,,0.00,Weather View 32 v70,2013-01-10 10:58:00,
2013-01-10 02:03:00,-7.2,-16.1,29.50,NNE,24,0.0,0.0,64,0.00,,,0.00,Weather View 32 v70,2013-01-10 11:03:00,
2013-01-10 02:08:00,-7.4,-16.3,29.51,NNE,24,0.0,0.0,64,0.00,,,0.00,Weather View 32 v70,2013-01-10 11:08:00,
2013-01-10 02:13:00,-7.4,-16.3,29.50,NNE,24,0.0,0.0,64,0.00,,,0.00,Weather View 32 v70,2013-01-10 11:13:00,
2013-01-10 02:18:00,-7.6,-16.5,29.51,NNE,24,0.0,0.0,64,0.00,,,0.00,Weather View 32 v70,2013-01-10 11:18:00,
2013-01-10 02:23:00,-7.9,-17.1,29.51,NNE,24,0.0,0.0,63,0.00,,,0.00,Weather View 32 v70,2013-01-10 11:23:00,
2013-01-10 02:28:00,-8.0,-17.2,29.51,NNE,24,0.0,0.0,63,0.00,,,0.00,Weather View 32 v70,2013-01-10 11:28:00,
2013-01-10 02:33:00,-8.2,-17.4,29.51,NNE,24,0.0,0.0,63,0.00,,,0.00,Weather View 32 v70,2013-01-10 11:33:00,
2013-01-10 02:38:00,-8.5,-17.7,29.50,NNE,24,0.0,0.0,63,0.00,,,0.00,Weather View 32 v70,2013-01-10 11:38:00,
2013-01-10 02:43:00,-8.8,-18.3,29.50,NNE,24,0.0,0.0,62,0.00,,,0.00,Weather View 32 v70,2013-01-10 11:43:00,
2013-01-10 02:48:00,-9.2,-18.7,29.51,NNE,25,0.0,0.0,62,0.00,,,0.00,Weather View 32 v70,2013-01-10 11:48:00,
2013-01-10 02:53:00,-9.4,-18.9,29.51,NNE,24,0.0,0.0,62,0.00,,,0.00,Weather View 32 v70,2013-01-10 11:53:00,
2013-01-10 02:58:00,-9.4,-18.9,29.51,NNE,25,0.0,0.0,62,0.00,,,0.00,Weather View 32 v70,2013-01-10 11:58:00,
2013-01-10 03:03:00,-9.6,-19.0,29.51,NNE,24,0.0,0.0,62,0.00,,,0.00,Weather View 32 v70,2013-01-10 12:03:00,
2013-01-10 03:08:00,-9.7,-19.1,29.51,NNE,24,0.0,0.0,62,0.00,,,0.00,Weather View 32 v70,2013-01-10 12:08:00,
2013-01-10 03:13:00,-9.8,-19.2,29.51,NNE,24,0.0,0.0,62,0.00,,,0.00,Weather View 32 v70,2013-01-10 12:13:00,
2013-01-10 03:18:00,-9.7,-18.8,29.51,NNE,24,0.0,0.0,63,0.00,,,0.00,Weather View 32 v70,2013-01-10 12:18:00,
2013-01-10 03:23:00,-9.6,-18.7,29.51,NNE,24,0.0,0.0,63,0.00,,,0.00,Weather View 32 v70,2013-01-10 12:23:00,
2013-01-10 03:28:00,-9.4,-18.5,29.51,NNE,24,0.0,0.0,63,0.00,,,0.00,Weather View 32 v70,2013-01-10 12:28:00,
2013-01-10 03:33:00,-9.0,-17.9,29.51,NNE,24,0.0,0.0,64,0.00,,,0.00,Weather View 32 v70,2013-01-10 12:33:00,
2013-01-10 03:38:00,-8.7,-17.6,29.51,NNE,24,0.0,0.0,64,0.00,,,0.00,Weather View 32 v70,2013-01-10 12:38:00,
2013-01-10 03:43:00,-8.4,-17.0,29.51,NNE,24,0.0,0.0,65,0.00,,,0.00,Weather View 32 v70,2013-01-10 12:43:00,
2013-01-10 03:48:00,-7.9,-16.5,29.52,NNE,24,0.0,0.0,65,0.00,,,0.00,Weather View 32 v70,2013-01-10 12:48:00,
2013-01-10 03:53:00,-7.4,-16.0,29.52,NNE,24,0.0,0.0,65,0.00,,,0.00,Weather View 32 v70,2013-01-10 12:53:00,
2013-01-10 03:58:00,-7.0,-15.6,29.51,NNE,24,0.0,0.0,65,0.00,,,0.00,Weather View 32 v70,2013-01-10 12:58:00,
2013-01-10 04:03:00,-6.7,-15.4,29.52,NNE,24,0.0,0.0,65,0.00,,,0.00,Weather View 32 v70,2013-01-10 13:03:00,
2013-01-10 04:08:00,-6.3,-15.0,29.51,NNE,24,0.0,0.0,65,0.00,,,0.00,Weather View 32 v70,2013-01-10 13:08:00,
2013-01-10 04:13:00,-5.9,-14.3,29.51,NNE,24,0.0,0.0,66,0.00,,,0.00,Weather View 32 v70,2013-01-10 13:13:00,
2013-01-10 04:18:00,-5.6,-14.0,29.52,NNE,24,0.0,0.0,66,0.00,,,0.00,Weather View 32 v70,2013-01-10 13:18:00,
2013-01-10 04:23:00,-5.3,-13.7,29.51,NNE,24,0.0,0.0,66,0.00,,,0.00,Weather View 32 v70,2013-01-10 13:23:00,
2013-01-10 04:28:00,-5.0,-13.4,29.52,NNE,24,0.0,0.0,67,0.00,,,0.00,Weather View 32 v70,2013-01-10 13:28:00,
2013-01-10 04:33:00,-4.6,-12.7,29.52,NNE,24,0.0,0.0,67,0.00,,,0.00,Weather View 32 v70,2013-01-10 13:33:00,
2013-01-10 04:38:00,-4.4,-12.6,29.52,NNE,24,0.0,0.0,67,0.00,,,0.00,Weather View 32 v70,2013-01-10 13:38:00,
2013-01-10 04:43:00,-4.1,-12.3,29.52,NNE,24,0.0,0.0,67,0.00,,,0.00,Weather View 32 v70,2013-01-10 13:43:00,
2013-01-10 04:48:00,-3.9,-12.1,29.52,NNE,24,0.0,0.0,67,0.00,,,0.00,Weather View 32 v70,2013-01-10 13:48:00,
2013-01-10 04:53:00,-3.5,-11.7,29.52,NNE,25,0.0,0.0,67,0.00,,,0.00,Weather View 32 v70,2013-01-10 13:53:00,
2013-01-10 04:58:00,-3.2,-11.1,29.52,NNE,25,0.0,0.0,68,0.00,,,0.00,Weather View 32 v70,2013-01-10 13:58:00,
2013-01-10 05:03:00,-2.7,-10.6,29.53,NNE,25,0.0,0.0,68,0.00,,,0.00,Weather View 32 v70,2013-01-10 14:03:00,
2013-01-10 05:08:00,-2.3,-10.2,29.53,NNE,24,0.0,0.0,68,0.00,,,0.00,Weather View 32 v70,2013-01-10 14:08:00,
2013-01-10 05:13:00,-2.0,-9.7,29.53,NNE,25,0.0,0.0,69,0.00,,,0.00,Weather View 32 v70,2013-01-10 14:13:00,
2013-01-10 05:18:00,-1.8,-9.5,29.54,NNE,25,0.0,0.0,69,0.00,,,0.00,Weather View 32 v70,2013-01-10 14:18:00,
2013-01-10 05:23:00,-1.4,-9.1,29.54,NNE,25,0.0,0.0,69,0.00,,,0.00,Weather View 32 v70,2013-01-10 14:23:00,
2013-01-10 05:28:00,-1.2,-8.9,29.54,NNE,24,0.0,0.0,69,0.00,,,0.00,Weather View 32 v70,2013-01-10 14:28:00,
2013-01-10 05:33:00,-0.9,-8.6,29.54,NNE,25,0.0,0.0,69,0.00,,,0.00,Weather View 32 v70,2013-01-10 14:33:00,
2013-01-10 05:38:00,-0.7,-8.4,29.54,NNE,25,0.0,0.0,69,0.00,,,0.00,Weather View 32 v70,2013-01-10 14:38:00,
2013-01-10 05:43:00,-0.4,-8.1,29.54,NNE,24,0.0,0.0,69,0.00,,,0.00,Weather View 32 v70,2013-01-10 14:43:00,
2013-01-10 05:48:00,-0.1,-7.5,29.54,NNE,25,0.0,0.0,70,0.00,,,0.00,Weather View 32 v70,2013-01-10 14:48:00,
2013-01-10 05:53:00,0.3,-7.2,29.55,NNE,25,0.0,0.0,70,0.00,,,0.00,Weather View 32 v70,2013-01-10 14:53:00,
2013-01-10 05:58:00,0.5,-7.0,29.55,NNE,25,0.0,0.0,70,0.00,,,0.00,Weather View 32 v70,2013-01-10 14:58:00,
2013-01-10 06:03:00,0.7,-6.8,29.55,NNE,24,0.0,0.0,70,0.00,,,0.00,Weather View 32 v70,2013-01-10 15:03:00,
2013-01-10 06:08:00,0.9,-6.6,29.55,NNE,25,0.0,0.0,70,0.00,,,0.00,Weather View 32 v70,2013-01-10 15:08:00,
2013-01-10 06:13:00,1.1,-6.4,29.55,NNE,24,0.0,0.0,70,0.00,,,0.00,Weather View 32 v70,2013-01-10 15:13:00,
2013-01-10 06:18:00,1.2,-6.3,29.56,NNE,25,0.0,0.0,70,0.00,,,0.00,Weather View 32 v70,2013-01-10 15:18:00,
2013-01-10 06:23:00,1.4,-6.1,29.56,NNE,25,0.0,0.0,70,0.00,,,0.00,Weather View 32 v70,2013-01-10 15:23:00,
2013-01-10 06:30:00,1.4,-6.1,29.56,NNE,25,0.0,0.0,70,0.00,,,0.00,Weather View 32 v70,2013-01-10 15:30:00,
2013-01-10 12:39:00,7.1,0.9,29.65,NNE,24,0.0,0.0,75,0.00,,,0.00,Weather View 32 v70,2013-01-10 21:39:00,
2013-01-10 12:44:00,7.2,0.7,29.65,NNE,24,0.0,0.0,74,0.00,,,0.00,Weather View 32 v70,2013-01-10 21:44:00,
2013-01-10 12:49:00,7.4,1.1,29.65,NNE,25,0.0,0.0,75,0.00,,,0.00,Weather View 32 v70,2013-01-10 21:49:00,
2013-01-10 12:55:00,7.5,1.2,29.65,NNE,24,0.0,0.0,75,0.00,,,0.00,Weather View 32 v70,2013-01-10 21:55:00,
2013-01-10 13:00:00,7.7,1.4,29.65,NNE,25,0.0,0.0,75,0.00,,,0.00,Weather View 32 v70,2013-01-10 22:00:00,
2013-01-10 13:05:00,7.8,1.5,29.65,NNE,25,0.0,0.0,75,0.00,,,0.00,Weather View 32 v70,2013-01-10 22:05:00,
2013-01-10 13:10:00,8.0,1.7,29.65,NNE,24,0.0,0.0,75,0.00,,,0.00,Weather View 32 v70,2013-01-10 22:10:00,
2013-01-10 13:15:00,8.2,1.9,29.65,NNE,24,0.0,0.0,75,0.00,,,0.00,Weather View 32 v70,2013-01-10 22:15:00,
2013-01-10 13:20:00,8.2,2.2,29.65,NNE,25,0.0,0.0,76,0.00,,,0.00,Weather View 32 v70,2013-01-10 22:20:00,
2013-01-10 13:25:00,8.4,2.4,29.65,NNE,24,0.0,0.0,76,0.00,,,0.00,Weather View 32 v70,2013-01-10 22:25:00,
2013-01-10 13:30:00,8.4,2.4,29.65,NNE,24,0.0,0.0,76,0.00,,,0.00,Weather View 32 v70,2013-01-10 22:30:00,
2013-01-10 13:35:00,8.6,2.6,29.65,NNE,24,0.0,0.0,76,0.00,,,0.00,Weather View 32 v70,2013-01-10 22:35:00,
2013-01-10 13:40:00,8.6,2.6,29.66,NNE,24,0.0,0.0,76,0.00,,,0.00,Weather View 32 v70,2013-01-10 22:40:00,
2013-01-10 13:45:00,8.7,2.7,29.66,NNE,24,0.0,0.0,76,0.00,,,0.00,Weather View 32 v70,2013-01-10 22:45:00,
2013-01-10 13:50:00,8.8,2.8,29.66,NNE,24,0.0,0.0,76,0.00,,,0.00,Weather View 32 v70,2013-01-10 22:50:00,
2013-01-10 13:55:00,8.8,2.8,29.66,NNE,24,0.0,0.0,76,0.00,,,0.00,Weather View 32 v70,2013-01-10 22:55:00,
2013-01-10 14:00:00,8.9,2.9,29.66,NNE,25,0.0,0.0,76,0.00,,,0.00,Weather View 32 v70,2013-01-10 23:00:00,
2013-01-10 14:05:00,8.9,2.9,29.66,NNE,25,0.0,0.0,76,0.00,,,0.00,Weather View 32 v70,2013-01-10 23:05:00,
2013-01-10 14:10:00,9.0,3.0,29.67,NNE,24,0.0,0.0,76,0.00,,,0.00,Weather View 32 v70,2013-01-10 23:10:00,
2013-01-10 14:15:00,9.0,3.0,29.67,NNE,25,0.0,0.0,76,0.00,,,0.00,Weather View 32 v70,2013-01-10 23:15:00,
2013-01-10 14:20:00,9.1,3.1,29.67,NNE,24,0.0,0.0,76,0.00,,,0.00,Weather View 32 v70,2013-01-10 23:20:00,
2013-01-10 14:25:00,9.1,3.1,29.67,NNE,24,0.0,0.0,76,0.00,,,0.00,Weather View 32 v70,2013-01-10 23:25:00,
2013-01-10 14:30:00,9.2,3.2,29.67,NNE,24,0.0,0.0,76,0.00,,,0.00,Weather View 32 v70,2013-01-10 23:30:00,
2013-01-10 14:35:00,9.2,3.2,29.68,NNE,24,0.0,0.0,76,0.00,,,0.00,Weather View 32 v70,2013-01-10 23:35:00,
2013-01-10 14:40:00,9.2,3.2,29.67,NNE,24,0.0,0.0,76,0.00,,,0.00,Weather View 32 v70,2013-01-10 23:40:00,
2013-01-10 14:45:00,9.2,3.2,29.68,NNE,24,0.0,0.0,76,0.00,,,0.00,Weather View 32 v70,2013-01-10 23:45:00,
2013-01-10 14:50:00,9.2,3.2,29.68,NNE,24,0.0,0.0,76,0.00,,,0.00,Weather View 32 v70,2013-01-10 23:50:00,
2013-01-10 14:55:00,9.2,3.2,29.68,NNE,24,0.0,0.0,76,0.00,,,0.00,Weather View 32 v70,2013-01-10 23:55:00,
2013-01-10 15:00:00,9.3,3.3,29.68,NNE,24,0.0,0.0,76,0.00,,,0.00,Weather View 32 v70,2013-01-11 00:00:00,
2013-01-10 15:05:00,9.3,3.3,29.68,NNE,24,0.0,0.0,76,0.00,,,0.00,Weather View 32 v70,2013-01-11 00:05:00,
2013-01-10 15:10:00,9.4,3.4,29.68,NNE,24,0.0,0.0,76,0.00,,,0.00,Weather View 32 v70,2013-01-11 00:10:00,
2013-01-10 15:15:00,9.4,3.4,29.68,NNE,24,0.0,0.0,76,0.00,,,0.00,Weather View 32 v70,2013-01-11 00:15:00,
2013-01-10 15:20:00,9.5,3.5,29.69,NNE,24,0.0,0.0,76,0.00,,,0.00,Weather View 32 v70,2013-01-11 00:20:00,
2013-01-10 15:25:00,9.5,3.5,29.69,NNE,24,0.0,0.0,76,0.00,,,0.00,Weather View 32 v70,2013-01-11 00:25:00,
2013-01-10 15:30:00,9.6,3.9,29.69,NNE,24,0.0,0.0,77,0.00,,,0.00,Weather View 32 v70,2013-01-11 00:30:00,
2013-01-10 15:35:00,9.7,3.7,29.69,NNE,24,0.0,0.0,76,0.00,,,0.00,Weather View 32 v70,2013-01-11 00:35:00,
2013-01-10 15:40:00,9.8,3.8,29.69,NNE,24,0.0,0.0,76,0.00,,,0.00,Weather View 32 v70,2013-01-11 00:40:00,
2013-01-10 15:50:00,9.8,3.8,29.69,NNE,24,0.0,0.0,76,0.00,,,0.00,Weather View 32 v70,2013-01-11 00:50:00,
2013-01-10 15:55:00,9.9,3.9,29.69,NNE,24,0.0,0.0,76,0.00,,,0.00,Weather View 32 v70,2013-01-11 00:55:00,
2013-01-10 16:00:00,10.0,4.0,29.69,NNE,24,0.0,0.0,76,0.00,,,0.00,Weather View 32 v70,2013-01-11 01:00:00,
2013-01-10 16:05:00,10.0,4.0,29.69,NNE,24,0.0,0.0,76,0.00,,,0.00,Weather View 32 v70,2013-01-11 01:05:00,
2013-01-10 16:10:00,10.2,4.4,29.70,NNE,24,0.0,0.0,77,0.00,,,0.00,Weather View 32 v70,2013-01-11 01:10:00,
2013-01-10 16:15:00,10.2,4.4,29.70,NNE,24,0.0,0.0,77,0.00,,,0.00,Weather View 32 v70,2013-01-11 01:15:00,
2013-01-10 16:20:00,10.3,4.5,29.70,NNE,24,0.0,0.0,77,0.00,,,0.00,Weather View 32 v70,2013-01-11 01:20:00,
2013-01-10 16:25:00,10.3,4.5,29.70,NNE,24,0.0,0.0,77,0.00,,,0.00,Weather View 32 v70,2013-01-11 01:25:00,
2013-01-10 16:30:00,10.2,4.4,29.70,NNE,24,0.0,0.0,77,0.00,,,0.00,Weather View 32 v70,2013-01-11 01:30:00,
2013-01-10 16:35:00,10.2,4.4,29.70,NNE,24,0.0,0.0,77,0.00,,,0.00,Weather View 32 v70,2013-01-11 01:35:00,
2013-01-10 16:40:00,10.2,4.4,29.70,NNE,24,0.0,0.0,77,0.00,,,0.00,Weather View 32 v70,2013-01-11 01:40:00,
2013-01-10 16:45:00,10.2,4.4,29.70,NNE,24,0.0,0.0,77,0.00,,,0.00,Weather View 32 v70,2013-01-11 01:45:00,
2013-01-10 16:50:00,10.1,4.3,29.70,NNE,24,0.0,0.0,77,0.00,,,0.00,Weather View 32 v70,2013-01-11 01:50:00,
2013-01-10 16:55:00,10.2,4.4,29.70,NNE,24,0.0,0.0,77,0.00,,,0.00,Weather View 32 v70,2013-01-11 01:55:00,
2013-01-10 17:00:00,10.2,4.4,29.70,NNE,24,0.0,0.0,77,0.00,,,0.00,Weather View 32 v70,2013-01-11 02:00:00,
2013-01-10 17:05:00,10.2,4.4,29.70,NNE,24,0.0,0.0,77,0.00,,,0.00,Weather View 32 v70,2013-01-11 02:05:00,
2013-01-10 17:10:00,10.1,4.3,29.70,NNE,24,0.0,0.0,77,0.00,,,0.00,Weather View 32 v70,2013-01-11 02:10:00,
2013-01-10 17:15:00,10.1,4.3,29.70,NNE,24,0.0,0.0,77,0.00,,,0.00,Weather View 32 v70,2013-01-11 02:15:00,
2013-01-10 17:20:00,10.1,4.3,29.70,NNE,24,0.0,0.0,77,0.00,,,0.00,Weather View 32 v70,2013-01-11 02:20:00,
2013-01-10 17:25:00,10.1,4.1,29.71,NNE,24,0.0,0.0,76,0.00,,,0.00,Weather View 32 v70,2013-01-11 02:25:00,
2013-01-10 17:30:00,10.1,4.3,29.71,NNE,24,0.0,0.0,77,0.00,,,0.00,Weather View 32 v70,2013-01-11 02:30:00,
2013-01-10 17:35:00,10.1,4.1,29.71,NNE,24,0.0,0.0,76,0.00,,,0.00,Weather View 32 v70,2013-01-11 02:35:00,
2013-01-10 17:40:00,10.2,4.4,29.70,NNE,24,0.0,0.0,77,0.00,,,0.00,Weather View 32 v70,2013-01-11 02:40:00,
2013-01-10 17:45:00,10.2,4.4,29.70,NNE,24,0.0,0.0,77,0.00,,,0.00,Weather View 32 v70,2013-01-11 02:45:00,
2013-01-10 17:50:00,10.3,4.5,29.71,NNE,24,0.0,0.0,77,0.00,,,0.00,Weather View 32 v70,2013-01-11 02:50:00,
2013-01-10 17:55:00,10.3,4.5,29.70,NNE,24,0.0,0.0,77,0.00,,,0.00,Weather View 32 v70,2013-01-11 02:55:00,
2013-01-10 18:01:00,10.4,4.6,29.71,NNE,24,0.0,0.0,77,0.00,,,0.00,Weather View 32 v70,2013-01-11 03:01:00,
2013-01-10 18:07:00,10.5,4.7,29.71,NNE,24,0.0,0.0,77,0.00,,,0.00,Weather View 32 v70,2013-01-11 03:07:00,
2013-01-10 18:12:00,10.5,4.7,29.70,NNE,24,0.0,0.0,77,0.00,,,0.00,Weather View 32 v70,2013-01-11 03:12:00,
2013-01-10 18:17:00,10.5,4.7,29.70,NNE,24,0.0,0.0,77,0.00,,,0.00,Weather View 32 v70,2013-01-11 03:17:00,
2013-01-10 18:22:00,10.6,4.8,29.70,NNE,24,0.0,0.0,77,0.00,,,0.00,Weather View 32 v70,2013-01-11 03:22:00,
2013-01-10 18:28:00,10.6,4.8,29.70,NNE,24,0.0,0.0,77,0.00,,,0.00,Weather View 32 v70,2013-01-11 03:28:00,
2013-01-10 18:30:00,10.6,4.8,29.70,NNE,24,0.0,0.0,77,0.00,,,0.00,Weather View 32 v70,2013-01-11 03:30:00,
2013-01-10 18:33:00,10.6,4.8,29.69,NNE,24,0.0,0.0,77,0.00,,,0.00,Weather View 32 v70,2013-01-11 03:33:00,
2013-01-10 18:38:00,10.6,4.8,29.69,NNE,24,0.0,0.0,77,0.00,,,0.00,Weather View 32 v70,2013-01-11 03:38:00,
2013-01-10 18:43:00,10.7,4.9,29.70,NNE,24,0.0,0.0,77,0.00,,,0.00,Weather View 32 v70,2013-01-11 03:43:00,
2013-01-10 18:48:00,10.8,5.0,29.70,NNE,24,0.0,0.0,77,0.00,,,0.00,Weather View 32 v70,2013-01-11 03:48:00,
2013-01-10 18:53:00,10.8,5.0,29.70,NNE,24,0.0,0.0,77,0.00,,,0.00,Weather View 32 v70,2013-01-11 03:53:00,
2013-01-10 18:58:00,10.8,5.0,29.70,NNE,24,0.0,0.0,77,0.00,,,0.00,Weather View 32 v70,2013-01-11 03:58:00,
2013-01-10 19:03:00,10.8,5.0,29.70,NNE,24,0.0,0.0,77,0.00,,,0.00,Weather View 32 v70,2013-01-11 04:03:00,
2013-01-10 19:08:00,10.8,5.0,29.69,NNE,24,0.0,0.0,77,0.00,,,0.00,Weather View 32 v70,2013-01-11 04:08:00,
2013-01-10 19:13:00,10.8,4.7,29.69,NNE,24,0.0,0.0,76,0.00,,,0.00,Weather View 32 v70,2013-01-11 04:13:00,
2013-01-10 19:18:00,10.8,5.0,29.70,NNE,24,0.0,0.0,77,0.00,,,0.00,Weather View 32 v70,2013-01-11 04:18:00,
2013-01-10 19:23:00,10.7,4.9,29.69,NNE,24,0.0,0.0,77,0.00,,,0.00,Weather View 32 v70,2013-01-11 04:23:00,
2013-01-10 19:28:00,10.7,4.9,29.69,NNE,24,0.0,0.0,77,0.00,,,0.00,Weather View 32 v70,2013-01-11 04:28:00,
2013-01-10 19:30:00,10.8,5.0,29.70,NNE,24,0.0,0.0,77,0.00,,,0.00,Weather View 32 v70,2013-01-11 04:30:00,
2013-01-10 19:33:00,10.7,4.9,29.69,NNE,24,0.0,0.0,77,0.00,,,0.00,Weather View 32 v70,2013-01-11 04:33:00,
2013-01-10 19:38:00,10.6,4.8,29.69,NNE,24,0.0,0.0,77,0.00,,,0.00,Weather View 32 v70,2013-01-11 04:38:00,
2013-01-10 19:43:00,10.6,4.8,29.69,NNE,24,0.0,0.0,77,0.00,,,0.00,Weather View 32 v70,2013-01-11 04:43:00,
2013-01-10 19:48:00,10.6,4.8,29.69,NNE,24,0.0,0.0,77,0.00,,,0.00,Weather View 32 v70,2013-01-11 04:48:00,
2013-01-10 19:53:00,10.6,4.8,29.69,NNE,24,0.0,0.0,77,0.00,,,0.00,Weather View 32 v70,2013-01-11 04:53:00,
2013-01-10 19:58:00,10.7,4.9,29.69,NNE,24,0.0,0.0,77,0.00,,,0.00,Weather View 32 v70,2013-01-11 04:58:00,
2013-01-10 20:00:00,10.7,4.9,29.69,NNE,24,0.0,0.0,77,0.00,,,0.00,Weather View 32 v70,2013-01-11 05:00:00,
2013-01-10 20:03:00,10.7,4.9,29.69,NNE,24,0.0,0.0,77,0.00,,,0.00,Weather View 32 v70,2013-01-11 05:03:00,
2013-01-10 20:08:00,10.8,5.0,29.69,NNE,24,0.0,0.0,77,0.00,,,0.00,Weather View 32 v70,2013-01-11 05:08:00,
2013-01-10 20:13:00,10.8,5.0,29.69,NNE,24,0.0,0.0,77,0.00,,,0.00,Weather View 32 v70,2013-01-11 05:13:00,
2013-01-10 20:18:00,10.8,5.0,29.68,NNE,24,0.0,0.0,77,0.00,,,0.00,Weather View 32 v70,2013-01-11 05:18:00,
2013-01-10 20:23:00,10.8,5.0,29.69,NNE,24,0.0,0.0,77,0.00,,,0.00,Weather View 32 v70,2013-01-11 05:23:00,
2013-01-10 20:28:00,10.8,5.0,29.69,NNE,24,0.0,0.0,77,0.00,,,0.00,Weather View 32 v70,2013-01-11 05:28:00,
2013-01-10 20:30:00,10.8,5.0,29.69,NNE,24,0.0,0.0,77,0.00,,,0.00,Weather View 32 v70,2013-01-11 05:30:00,
2013-01-10 20:33:00,10.8,5.0,29.69,NNE,24,0.0,0.0,77,0.00,,,0.00,Weather View 32 v70,2013-01-11 05:33:00,
2013-01-10 20:38:00,10.9,5.1,29.68,NNE,24,0.0,0.0,77,0.00,,,0.00,Weather View 32 v70,2013-01-11 05:38:00,
2013-01-10 20:43:00,10.9,5.1,29.68,NNE,24,0.0,0.0,77,0.00,,,0.00,Weather View 32 v70,2013-01-11 05:43:00,
2013-01-10 20:48:00,11.0,5.2,29.68,NNE,24,0.0,0.0,77,0.00,,,0.00,Weather View 32 v70,2013-01-11 05:48:00,
2013-01-10 20:53:00,11.1,5.3,29.68,NNE,24,0.0,0.0,77,0.00,,,0.00,Weather View 32 v70,2013-01-11 05:53:00,
2013-01-10 20:58:00,11.1,5.3,29.68,NNE,24,0.0,0.0,77,0.00,,,0.00,Weather View 32 v70,2013-01-11 05:58:00,
2013-01-10 21:03:00,11.1,5.3,29.67,NNE,24,0.0,0.0,77,0.00,,,0.00,Weather View 32 v70,2013-01-11 06:03:00,
2013-01-10 21:08:00,11.2,5.4,29.67,NNE,24,0.0,0.0,77,0.00,,,0.00,Weather View 32 v70,2013-01-11 06:08:00,
2013-01-10 21:13:00,11.2,5.4,29.66,NNE,24,0.0,0.0,77,0.00,,,0.00,Weather View 32 v70,2013-01-11 06:13:00,
2013-01-10 21:18:00,11.2,5.4,29.67,NNE,24,0.0,0.0,77,0.00,,,0.00,Weather View 32 v70,2013-01-11 06:18:00,
2013-01-10 21:23:00,11.2,5.4,29.66,NNE,24,0.0,0.0,77,0.00,,,0.00,Weather View 32 v70,2013-01-11 06:23:00,
2013-01-10 21:28:00,11.3,5.5,29.66,NNE,24,0.0,0.0,77,0.00,,,0.00,Weather View 32 v70,2013-01-11 06:28:00,
2013-01-10 21:30:00,11.3,5.5,29.66,NNE,24,0.0,0.0,77,0.00,,,0.00,Weather View 32 v70,2013-01-11 06:30:00,
2013-01-10 21:33:00,11.2,5.4,29.67,NNE,24,0.0,0.0,77,0.00,,,0.00,Weather View 32 v70,2013-01-11 06:33:00,
2013-01-10 21:38:00,11.1,5.3,29.66,NNE,24,0.0,0.0,77,0.00,,,0.00,Weather View 32 v70,2013-01-11 06:38:00,
2013-01-10 21:43:00,10.8,4.7,29.67,NNE,24,0.0,0.0,76,0.00,,,0.00,Weather View 32 v70,2013-01-11 06:43:00,
2013-01-10 21:48:00,10.4,4.3,29.67,NNE,24,0.0,0.0,76,0.00,,,0.00,Weather View 32 v70,2013-01-11 06:48:00,
2013-01-10 21:53:00,10.1,3.8,29.67,NNE,24,0.0,0.0,75,0.00,,,0.00,Weather View 32 v70,2013-01-11 06:53:00,
2013-01-10 21:58:00,9.5,3.2,29.66,NNE,24,0.0,0.0,75,0.00,,,0.00,Weather View 32 v70,2013-01-11 06:58:00,
2013-01-10 22:03:00,8.7,2.1,29.66,NNE,24,0.0,0.0,74,0.00,,,0.00,Weather View 32 v70,2013-01-11 07:03:00,
2013-01-10 22:08:00,8.2,1.3,29.66,NNE,24,0.0,0.0,73,0.00,,,0.00,Weather View 32 v70,2013-01-11 07:08:00,
2013-01-10 22:13:00,7.7,0.9,29.65,NNE,24,0.0,0.0,73,0.00,,,0.00,Weather View 32 v70,2013-01-11 07:13:00,
2013-01-10 22:18:00,7.1,0.3,29.65,NNE,24,0.0,0.0,73,0.00,,,0.00,Weather View 32 v70,2013-01-11 07:18:00,
2013-01-10 22:23:00,6.2,-0.9,29.64,NNE,24,0.0,0.0,72,0.00,,,0.00,Weather View 32 v70,2013-01-11 07:23:00,
2013-01-10 22:28:00,5.6,-1.8,29.64,NNE,24,0.0,0.0,71,0.00,,,0.00,Weather View 32 v70,2013-01-11 07:28:00,
2013-01-10 22:30:00,6.4,-0.7,29.64,NNE,24,0.0,0.0,72,0.00,,,0.00,Weather View 32 v70,2013-01-11 07:30:00,
2013-01-10 22:33:00,4.8,-2.8,29.63,NNE,24,0.0,0.0,70,0.00,,,0.00,Weather View 32 v70,2013-01-11 07:33:00,
2013-01-10 22:38:00,4.2,-3.4,29.64,NNE,24,0.0,0.0,70,0.00,,,0.00,Weather View 32 v70,2013-01-11 07:38:00,
2013-01-10 22:43:00,3.6,-4.0,29.63,NNE,24,0.0,0.0,70,0.00,,,0.00,Weather View 32 v70,2013-01-11 07:43:00,
2013-01-10 22:48:00,3.0,-4.9,29.63,NNE,24,0.0,0.0,69,0.00,,,0.00,Weather View 32 v70,2013-01-11 07:48:00,
2013-01-10 22:53:00,2.6,-5.2,29.62,NNE,24,0.0,0.0,69,0.00,,,0.00,Weather View 32 v70,2013-01-11 07:53:00,
2013-01-10 22:58:00,2.0,-5.8,29.62,NNE,24,0.0,0.0,69,0.00,,,0.00,Weather View 32 v70,2013-01-11 07:58:00,
2013-01-10 23:03:00,1.5,-6.3,29.62,NNE,24,0.0,0.0,69,0.00,,,0.00,Weather View 32 v70,2013-01-11 08:03:00,
2013-01-10 23:08:00,1.2,-6.6,29.62,NNE,24,0.0,0.0,69,0.00,,,0.00,Weather View 32 v70,2013-01-11 08:08:00,
2013-01-10 23:13:00,0.8,-7.0,29.62,NNE,24,0.0,0.0,69,0.00,,,0.00,Weather View 32 v70,2013-01-11 08:13:00,
2013-01-10 23:18:00,0.4,-7.4,29.62,NNE,24,0.0,0.0,69,0.00,,,0.00,Weather View 32 v70,2013-01-11 08:18:00,
2013-01-10 23:23:00,0.0,-8.0,29.63,NNE,24,0.0,0.0,68,0.00,,,0.00,Weather View 32 v70,2013-01-11 08:23:00,
2013-01-10 23:28:00,-0.5,-8.5,29.63,NNE,24,0.0,0.0,68,0.00,,,0.00,Weather View 32 v70,2013-01-11 08:28:00,
2013-01-10 23:30:00,0.0,-8.0,29.63,NNE,24,0.0,0.0,68,0.00,,,0.00,Weather View 32 v70,2013-01-11 08:30:00,
2013-01-10 23:33:00,-0.8,-8.8,29.62,NNE,24,0.0,0.0,68,0.00,,,0.00,Weather View 32 v70,2013-01-11 08:33:00,
2013-01-10 23:38:00,-1.2,-9.5,29.61,NNE,24,0.0,0.0,67,0.00,,,0.00,Weather View 32 v70,2013-01-11 08:38:00,
2013-01-10 23:43:00,-1.6,-9.6,29.61,NNE,24,0.0,0.0,68,0.00,,,0.00,Weather View 32 v70,2013-01-11 08:43:00,
2013-01-10 23:48:00,-1.9,-10.2,29.61,NNE,24,0.0,0.0,67,0.00,,,0.00,Weather View 32 v70,2013-01-11 08:48:00,
2013-01-10 23:53:00,-2.2,-10.4,29.61,NNE,24,0.0,0.0,67,0.00,,,0.00,Weather View 32 v70,2013-01-11 08:53:00,
2013-01-10 23:58:00,-2.3,-10.2,29.61,NNE,24,0.0,0.0,68,0.00,,,0.00,Weather View 32 v70,2013-01-11 08:58:00,